Time,TemperatureF,DewpointF,PressureIn,WindDirection,WindDirectionDegrees,WindSpeedMPH,WindSpeedGustMPH,Humidity,HourlyPrecipIn,Conditions,Clouds,dailyrainin,SoftwareType,DateUTC
2013-05-02 00:00:00,73.0,37.1,29.74,NNE,22,0.0,0.0,27,0.00,CLR,,0.00,WeatherDisplay:10.37,2013-05-01 21:00:00,
2013-05-02 00:03:00,73.0,37.1,29.74,NNE,22,0.0,0.0,27,0.00,CLR,,0.00,WeatherDisplay:10.37,2013-05-01 21:03:00,
2013-05-02 00:04:00,73.0,37.1,29.74,NNE,22,0.0,0.0,27,0.00,CLR,,0.00,WeatherDisplay:10.37,2013-05-01 21:04:00,
2013-05-02 00:05:00,73.0,37.1,29.74,NNE,22,2.3,2.3,27,0.00,CLR,,0.00,WeatherDisplay:10.37,2013-05-01 21:05:00,
2013-05-02 00:06:00,73.0,37.1,29.74,NNE,22,0.0,0.0,27,0.00,CLR,,0.00,WeatherDisplay:10.37,2013-05-01 21:06:00,
2013-05-02 00:08:00,73.0,37.1,29.74,NNE,22,0.0,0.0,27,0.00,CLR,,0.00,WeatherDisplay:10.37,2013-05-01 21:08:00,
2013-05-02 00:09:00,73.0,37.1,29.74,NNE,22,2.3,2.3,27,0.00,CLR,,0.00,WeatherDisplay:10.37,2013-05-01 21:09:00,
2013-05-02 00:11:00,73.2,37.2,29.74,NNE,22,2.3,0.0,27,0.00,CLR,,0.00,WeatherDisplay:10.37,2013-05-01 21:11:00,
2013-05-02 00:13:00,73.2,37.2,29.74,North,0,0.0,0.0,27,0.00,CLR,,0.00,WeatherDisplay:10.37,2013-05-01 21:13:00,
2013-05-02 00:14:00,73.2,37.2,29.74,North,0,0.0,0.0,27,0.00,CLR,,0.00,WeatherDisplay:10.37,2013-05-01 21:14:00,
2013-05-02 00:16:00,73.4,37.4,29.74,North,0,0.0,0.0,27,0.00,CLR,,0.00,WeatherDisplay:10.37,2013-05-01 21:16:00,
2013-05-02 00:18:00,73.4,37.4,29.74,NNW,338,3.5,3.5,27,0.00,CLR,,0.00,WeatherDisplay:10.37,2013-05-01 21:18:00,
2013-05-02 00:19:00,73.6,37.5,29.74,NNW,338,4.6,4.6,27,0.00,CLR,,0.00,WeatherDisplay:10.37,2013-05-01 21:19:00,
2013-05-02 00:21:00,73.8,37.7,29.74,NNW,338,3.5,3.5,27,0.00,CLR,,0.00,WeatherDisplay:10.37,2013-05-01 21:21:00,
2013-05-02 00:22:00,73.8,37.7,29.74,NNW,338,3.5,3.5,27,0.00,CLR,,0.00,WeatherDisplay:10.37,2013-05-01 21:22:00,
2013-05-02 00:23:00,73.8,37.7,29.74,NW,315,2.9,0.0,27,0.00,CLR,,0.00,WeatherDisplay:10.37,2013-05-01 21:23:00,
2013-05-02 00:24:00,73.9,37.8,29.74,North,0,1.2,2.4,27,0.00,CLR,,0.00,WeatherDisplay:10.37,2013-05-01 21:24:00,
2013-05-02 00:26:00,74.1,38.0,29.74,North,0,3.6,3.6,27,0.00,CLR,,0.00,WeatherDisplay:10.37,2013-05-01 21:26:00,
2013-05-02 00:27:00,74.3,38.1,29.74,NNE,22,3.5,3.5,27,0.00,CLR,,0.00,WeatherDisplay:10.37,2013-05-01 21:27:00,
2013-05-02 00:28:00,74.3,38.1,29.74,North,0,0.0,0.0,27,0.00,CLR,,0.00,WeatherDisplay:10.37,2013-05-01 21:28:00,
2013-05-02 00:29:00,74.3,38.1,29.74,NNW,338,0.0,0.0,27,0.00,CLR,,0.00,WeatherDisplay:10.37,2013-05-01 21:29:00,
2013-05-02 00:31:00,74.3,38.1,29.74,NNW,338,0.0,0.0,27,0.00,CLR,,0.00,WeatherDisplay:10.37,2013-05-01 21:31:00,
2013-05-02 00:32:00,74.3,38.1,29.74,NNW,338,0.0,0.0,27,0.00,CLR,,0.00,WeatherDisplay:10.37,2013-05-01 21:32:00,
2013-05-02 00:34:00,74.1,38.0,29.74,North,0,2.3,2.3,27,0.00,CLR,,0.00,WeatherDisplay:10.37,2013-05-01 21:34:00,
2013-05-02 00:36:00,74.3,38.1,29.74,North,0,0.0,0.0,27,0.00,CLR,,0.00,WeatherDisplay:10.37,2013-05-01 21:36:00,
2013-05-02 00:37:00,74.3,38.1,29.74,NNW,338,1.2,0.0,27,0.00,CLR,,0.00,WeatherDisplay:10.37,2013-05-01 21:37:00,
2013-05-02 00:39:00,74.3,38.1,29.74,North,0,3.1,0.0,27,0.00,CLR,,0.00,WeatherDisplay:10.37,2013-05-01 21:39:00,
2013-05-02 00:40:00,74.3,38.1,29.74,North,0,3.1,0.0,27,0.00,CLR,,0.00,WeatherDisplay:10.37,2013-05-01 21:40:00,
2013-05-02 00:41:00,74.5,38.3,29.74,NNW,338,5.8,5.8,27,0.00,CLR,,0.00,WeatherDisplay:10.37,2013-05-01 21:41:00,
2013-05-02 00:42:00,74.5,38.3,29.74,NNE,22,3.1,3.1,27,0.00,CLR,,0.00,WeatherDisplay:10.37,2013-05-01 21:42:00,
2013-05-02 00:43:00,74.7,38.4,29.74,NNE,22,3.6,3.6,27,0.00,CLR,,0.00,WeatherDisplay:10.37,2013-05-01 21:43:00,
2013-05-02 00:44:00,74.8,38.6,29.74,NW,315,4.7,4.7,27,0.00,CLR,,0.00,WeatherDisplay:10.37,2013-05-01 21:44:00,
2013-05-02 00:45:00,74.8,38.6,29.74,NW,315,4.7,4.7,27,0.00,CLR,,0.00,WeatherDisplay:10.37,2013-05-01 21:45:00,
2013-05-02 00:47:00,75.2,37.9,29.74,NNE,22,5.8,5.8,26,0.00,CLR,,0.00,WeatherDisplay:10.37,2013-05-01 21:47:00,
2013-05-02 00:48:00,75.6,38.2,29.74,NW,315,5.8,5.8,26,0.00,CLR,,0.00,WeatherDisplay:10.37,2013-05-01 21:48:00,
2013-05-02 00:50:00,75.6,38.2,29.74,ENE,68,5.8,5.8,26,0.00,CLR,,0.00,WeatherDisplay:10.37,2013-05-01 21:50:00,
2013-05-02 00:52:00,75.7,38.4,29.74,North,0,5.8,5.8,26,0.00,CLR,,0.00,WeatherDisplay:10.37,2013-05-01 21:52:00,
2013-05-02 00:53:00,75.7,38.4,29.74,East,90,5.8,5.8,26,0.00,CLR,,0.00,WeatherDisplay:10.37,2013-05-01 21:53:00,
2013-05-02 00:55:00,75.7,38.4,29.74,ENE,68,3.5,3.5,26,0.00,CLR,,0.00,WeatherDisplay:10.37,2013-05-01 21:55:00,
2013-05-02 00:57:00,75.4,38.1,29.74,NNW,338,1.2,0.0,26,0.00,CLR,,0.00,WeatherDisplay:10.37,2013-05-01 21:57:00,
2013-05-02 00:58:00,75.4,38.1,29.74,NNW,338,3.1,0.0,26,0.00,CLR,,0.00,WeatherDisplay:10.37,2013-05-01 21:58:00,
2013-05-02 01:00:00,75.3,38.0,29.74,NNE,16,2.0,3.0,26,0.00,CLR,,0.00,WeatherDisplay:10.37,2013-05-01 22:00:00,
2013-05-02 01:01:00,75.2,37.9,29.74,NW,315,3.5,3.5,26,0.00,CLR,,0.00,WeatherDisplay:10.37,2013-05-01 22:01:00,
2013-05-02 01:02:00,75.2,37.9,29.74,WNW,292,3.1,3.1,26,0.00,CLR,,0.00,WeatherDisplay:10.37,2013-05-01 22:02:00,
2013-05-02 01:03:00,75.2,37.9,29.74,WNW,292,3.8,3.8,26,0.00,CLR,,0.00,WeatherDisplay:10.37,2013-05-01 22:03:00,
2013-05-02 01:05:00,75.2,37.9,29.74,NW,304,2.0,4.0,26,0.00,CLR,,0.00,WeatherDisplay:10.37,2013-05-01 22:05:00,
2013-05-02 01:06:00,75.0,38.8,29.74,NNW,338,0.0,0.0,27,0.00,CLR,,0.00,WeatherDisplay:10.37,2013-05-01 22:06:00,
2013-05-02 01:07:00,74.8,38.6,29.74,NW,315,0.0,0.0,27,0.00,CLR,,0.00,WeatherDisplay:10.37,2013-05-01 22:07:00,
2013-05-02 01:08:00,74.8,38.6,29.74,WNW,292,3.1,0.0,27,0.00,CLR,,0.00,WeatherDisplay:10.37,2013-05-01 22:08:00,
2013-05-02 01:09:00,74.8,38.6,29.74,West,270,3.3,3.3,27,0.00,CLR,,0.00,WeatherDisplay:10.37,2013-05-01 22:09:00,
2013-05-02 01:10:00,74.8,38.6,29.74,NW,308,2.0,4.0,27,0.00,CLR,,0.00,WeatherDisplay:10.37,2013-05-01 22:10:00,
2013-05-02 01:11:00,74.7,38.4,29.74,NNW,338,2.9,2.9,27,0.00,CLR,,0.00,WeatherDisplay:10.37,2013-05-01 22:11:00,
2013-05-02 01:13:00,74.7,38.4,29.74,WNW,292,0.0,0.0,27,0.00,CLR,,0.00,WeatherDisplay:10.37,2013-05-01 22:13:00,
2013-05-02 01:14:00,74.5,38.3,29.74,North,0,2.4,0.0,27,0.00,CLR,,0.00,WeatherDisplay:10.37,2013-05-01 22:14:00,
2013-05-02 01:15:00,74.5,38.3,29.74,NNW,338,4.6,4.6,27,0.00,CLR,,0.00,WeatherDisplay:10.37,2013-05-01 22:15:00,
2013-05-02 01:16:00,74.5,38.3,29.74,WNW,292,3.5,3.5,27,0.00,CLR,,0.00,WeatherDisplay:10.37,2013-05-01 22:16:00,
2013-05-02 01:18:00,74.7,38.4,29.74,WNW,292,4.6,4.6,27,0.00,CLR,,0.00,WeatherDisplay:10.37,2013-05-01 22:18:00,
2013-05-02 01:19:00,74.7,38.4,29.74,NW,315,4.6,4.6,27,0.00,CLR,,0.00,WeatherDisplay:10.37,2013-05-01 22:19:00,
2013-05-02 01:20:00,74.7,38.4,29.74,WNW,292,3.5,3.5,27,0.00,CLR,,0.00,WeatherDisplay:10.37,2013-05-01 22:20:00,
2013-05-02 01:21:00,74.8,38.6,29.74,West,270,5.8,5.8,27,0.00,CLR,,0.00,WeatherDisplay:10.37,2013-05-01 22:21:00,
2013-05-02 01:23:00,74.8,38.6,29.71,NNW,338,5.8,5.8,27,0.00,CLR,,0.00,WeatherDisplay:10.37,2013-05-01 22:23:00,
2013-05-02 01:24:00,74.8,38.6,29.71,NNW,338,5.8,5.8,27,0.00,CLR,,0.00,WeatherDisplay:10.37,2013-05-01 22:24:00,
2013-05-02 01:25:00,74.8,38.6,29.71,NNW,338,3.5,3.5,27,0.00,CLR,,0.00,WeatherDisplay:10.37,2013-05-01 22:25:00,
2013-05-02 01:26:00,74.7,38.4,29.71,NW,315,2.3,0.0,27,0.00,CLR,,0.00,WeatherDisplay:10.37,2013-05-01 22:26:00,
2013-05-02 01:29:00,74.7,38.4,29.71,WNW,292,1.2,1.2,27,0.00,CLR,,0.00,WeatherDisplay:10.37,2013-05-01 22:29:00,
2013-05-02 01:30:00,74.5,38.3,29.71,NW,315,2.4,2.4,27,0.00,CLR,,0.00,WeatherDisplay:10.37,2013-05-01 22:30:00,
2013-05-02 01:32:00,74.3,38.1,29.71,NNW,338,0.0,0.0,27,0.00,CLR,,0.00,WeatherDisplay:10.37,2013-05-01 22:32:00,
2013-05-02 01:34:00,74.3,38.1,29.71,NW,315,2.3,2.3,27,0.00,CLR,,0.00,WeatherDisplay:10.37,2013-05-01 22:34:00,
2013-05-02 01:36:00,74.1,38.0,29.71,WNW,292,2.4,2.4,27,0.00,CLR,,0.00,WeatherDisplay:10.37,2013-05-01 22:36:00,
2013-05-02 01:37:00,74.1,38.0,29.71,WNW,292,2.3,2.3,27,0.00,CLR,,0.00,WeatherDisplay:10.37,2013-05-01 22:37:00,
2013-05-02 01:39:00,74.1,38.0,29.71,NNW,338,2.6,2.6,27,0.00,CLR,,0.00,WeatherDisplay:10.37,2013-05-01 22:39:00,
2013-05-02 01:40:00,74.1,38.0,29.71,NW,317,1.0,5.0,27,0.00,CLR,,0.00,WeatherDisplay:10.37,2013-05-01 22:40:00,
2013-05-02 01:41:00,74.1,38.0,29.71,NNW,338,2.3,2.3,27,0.00,CLR,,0.00,WeatherDisplay:10.37,2013-05-01 22:41:00,
2013-05-02 01:42:00,74.1,38.0,29.71,NNW,338,3.5,3.5,27,0.00,CLR,,0.00,WeatherDisplay:10.37,2013-05-01 22:42:00,
2013-05-02 01:44:00,74.1,38.0,29.71,WNW,292,2.3,2.3,27,0.00,CLR,,0.00,WeatherDisplay:10.37,2013-05-01 22:44:00,
2013-05-02 01:45:00,74.1,38.0,29.71,WNW,292,3.5,3.5,27,0.00,CLR,,0.00,WeatherDisplay:10.37,2013-05-01 22:45:00,
2013-05-02 01:46:00,74.1,38.0,29.71,WNW,292,4.6,4.6,27,0.00,CLR,,0.00,WeatherDisplay:10.37,2013-05-01 22:46:00,
2013-05-02 01:47:00,74.3,38.1,29.71,WNW,292,5.8,5.8,27,0.00,CLR,,0.00,WeatherDisplay:10.37,2013-05-01 22:47:00,
2013-05-02 01:49:00,74.3,38.1,29.71,NW,315,4.6,4.6,27,0.00,CLR,,0.00,WeatherDisplay:10.37,2013-05-01 22:49:00,
2013-05-02 01:50:00,74.3,38.1,29.71,WNW,292,5.4,5.4,27,0.00,CLR,,0.00,WeatherDisplay:10.37,2013-05-01 22:50:00,
2013-05-02 01:51:00,74.3,38.1,29.71,WNW,292,6.0,6.0,27,0.00,CLR,,0.00,WeatherDisplay:10.37,2013-05-01 22:51:00,
2013-05-02 01:52:00,74.5,38.3,29.71,WNW,292,8.1,8.1,27,0.00,CLR,,0.00,WeatherDisplay:10.37,2013-05-01 22:52:00,
2013-05-02 01:55:00,74.7,38.4,29.71,WNW,292,6.9,6.9,27,0.00,CLR,,0.00,WeatherDisplay:10.37,2013-05-01 22:55:00,
2013-05-02 01:56:00,74.7,38.4,29.71,WNW,292,6.9,6.9,27,0.00,CLR,,0.00,WeatherDisplay:10.37,2013-05-01 22:56:00,
2013-05-02 01:57:00,74.7,38.4,29.71,WNW,292,6.9,6.9,27,0.00,CLR,,0.00,WeatherDisplay:10.37,2013-05-01 22:57:00,
2013-05-02 02:00:00,74.8,38.6,29.71,WNW,292,5.8,5.8,27,0.00,CLR,,0.00,WeatherDisplay:10.37,2013-05-01 23:00:00,
2013-05-02 02:01:00,74.8,38.6,29.71,WNW,292,5.8,5.8,27,0.00,CLR,,0.00,WeatherDisplay:10.37,2013-05-01 23:01:00,
2013-05-02 02:02:00,74.8,38.6,29.71,WNW,292,5.8,5.8,27,0.00,CLR,,0.00,WeatherDisplay:10.37,2013-05-01 23:02:00,
2013-05-02 02:05:00,74.8,38.6,29.71,WNW,292,4.6,4.6,27,0.00,CLR,,0.00,WeatherDisplay:10.37,2013-05-01 23:05:00,
2013-05-02 02:06:00,74.8,38.6,29.71,West,270,5.8,5.8,27,0.00,CLR,,0.00,WeatherDisplay:10.37,2013-05-01 23:06:00,
2013-05-02 02:07:00,74.8,38.6,29.71,WNW,292,5.8,5.8,27,0.00,CLR,,0.00,WeatherDisplay:10.37,2013-05-01 23:07:00,
2013-05-02 02:08:00,74.8,38.6,29.71,WNW,292,3.6,3.6,27,0.00,CLR,,0.00,WeatherDisplay:10.37,2013-05-01 23:08:00,
2013-05-02 02:10:00,74.7,38.4,29.71,WNW,292,4.6,4.6,27,0.00,CLR,,0.00,WeatherDisplay:10.37,2013-05-01 23:10:00,
2013-05-02 02:11:00,74.7,38.4,29.71,WNW,292,3.6,3.6,27,0.00,CLR,,0.00,WeatherDisplay:10.37,2013-05-01 23:11:00,
2013-05-02 02:12:00,74.7,38.4,29.71,WNW,292,4.7,4.7,27,0.00,CLR,,0.00,WeatherDisplay:10.37,2013-05-01 23:12:00,
2013-05-02 02:13:00,74.5,38.3,29.71,WNW,292,5.8,5.8,27,0.00,CLR,,0.00,WeatherDisplay:10.37,2013-05-01 23:13:00,
2013-05-02 02:16:00,74.5,38.3,29.71,WNW,292,3.5,3.5,27,0.00,CLR,,0.00,WeatherDisplay:10.37,2013-05-01 23:16:00,
2013-05-02 02:17:00,74.5,38.3,29.71,WNW,292,2.3,2.3,27,0.00,CLR,,0.00,WeatherDisplay:10.37,2013-05-01 23:17:00,
2013-05-02 02:19:00,74.3,38.1,29.71,WNW,292,4.6,4.6,27,0.00,CLR,,0.00,WeatherDisplay:10.37,2013-05-01 23:19:00,
2013-05-02 02:21:00,74.3,38.1,29.71,WNW,292,3.5,3.5,27,0.00,CLR,,0.00,WeatherDisplay:10.37,2013-05-01 23:21:00,
2013-05-02 02:22:00,74.3,38.1,29.71,WNW,292,3.5,3.5,27,0.00,CLR,,0.00,WeatherDisplay:10.37,2013-05-01 23:22:00,
2013-05-02 02:23:00,74.3,38.1,29.71,WNW,292,5.8,5.8,27,0.00,CLR,,0.00,WeatherDisplay:10.37,2013-05-01 23:23:00,
2013-05-02 02:24:00,74.1,38.0,29.71,WNW,292,2.3,2.3,27,0.00,CLR,,0.00,WeatherDisplay:10.37,2013-05-01 23:24:00,
2013-05-02 02:26:00,74.1,38.0,29.71,NW,315,2.3,2.3,27,0.00,CLR,,0.00,WeatherDisplay:10.37,2013-05-01 23:26:00,
2013-05-02 02:27:00,74.1,38.0,29.71,WNW,292,2.4,2.4,27,0.00,CLR,,0.00,WeatherDisplay:10.37,2013-05-01 23:27:00,
2013-05-02 02:28:00,74.1,38.0,29.71,West,270,7.6,7.6,27,0.00,CLR,,0.00,WeatherDisplay:10.37,2013-05-01 23:28:00,
2013-05-02 02:29:00,74.3,38.1,29.71,WNW,292,8.1,8.1,27,0.00,CLR,,0.00,WeatherDisplay:10.37,2013-05-01 23:29:00,
2013-05-02 02:32:00,74.5,38.3,29.71,West,270,8.1,8.1,27,0.00,CLR,,0.00,WeatherDisplay:10.37,2013-05-01 23:32:00,
2013-05-02 02:33:00,74.5,38.3,29.71,West,270,9.8,9.8,27,0.00,CLR,,0.00,WeatherDisplay:10.37,2013-05-01 23:33:00,
2013-05-02 02:34:00,74.7,38.4,29.71,NW,315,9.2,9.2,27,0.00,CLR,,0.00,WeatherDisplay:10.37,2013-05-01 23:34:00,
2013-05-02 02:37:00,74.7,38.4,29.71,WNW,292,4.6,4.6,27,0.00,CLR,,0.00,WeatherDisplay:10.37,2013-05-01 23:37:00,
2013-05-02 02:38:00,74.7,38.4,29.68,West,270,6.9,6.9,27,0.00,CLR,,0.00,WeatherDisplay:10.37,2013-05-01 23:38:00,
2013-05-02 02:39:00,74.7,38.4,29.68,WNW,292,4.6,4.6,27,0.00,CLR,,0.00,WeatherDisplay:10.37,2013-05-01 23:39:00,
2013-05-02 02:42:00,74.7,38.4,29.68,WNW,292,5.8,5.8,27,0.00,CLR,,0.00,WeatherDisplay:10.37,2013-05-01 23:42:00,
2013-05-02 02:43:00,74.7,38.4,29.68,West,270,5.8,5.8,27,0.00,CLR,,0.00,WeatherDisplay:10.37,2013-05-01 23:43:00,
2013-05-02 02:44:00,74.7,38.4,29.68,West,270,3.1,0.0,27,0.00,CLR,,0.00,WeatherDisplay:10.37,2013-05-01 23:44:00,
2013-05-02 02:48:00,74.5,38.3,29.68,NW,315,4.6,4.6,27,0.00,CLR,,0.00,WeatherDisplay:10.37,2013-05-01 23:48:00,
2013-05-02 02:49:00,74.5,38.3,29.68,WNW,292,8.1,8.1,27,0.00,CLR,,0.00,WeatherDisplay:10.37,2013-05-01 23:49:00,
2013-05-02 02:53:00,74.3,38.1,29.68,WNW,292,7.8,7.8,27,0.00,CLR,,0.00,WeatherDisplay:10.37,2013-05-01 23:53:00,
2013-05-02 02:54:00,74.3,38.1,29.68,WNW,292,8.1,8.1,27,0.00,CLR,,0.00,WeatherDisplay:10.37,2013-05-01 23:54:00,
2013-05-02 02:55:00,74.3,38.1,29.68,WNW,292,8.1,8.1,27,0.00,CLR,,0.00,WeatherDisplay:10.37,2013-05-01 23:55:00,
2013-05-02 02:58:00,74.1,38.0,29.68,NNW,338,5.8,5.8,27,0.00,CLR,,0.00,WeatherDisplay:10.37,2013-05-01 23:58:00,
2013-05-02 02:59:00,74.1,38.0,29.68,NNW,338,4.6,4.6,27,0.00,CLR,,0.00,WeatherDisplay:10.37,2013-05-01 23:59:00,
2013-05-02 03:00:00,74.1,38.0,29.68,WNW,292,4.6,4.6,27,0.00,CLR,,0.00,WeatherDisplay:10.37,2013-05-02 00:00:00,
2013-05-02 03:03:00,74.1,38.0,29.68,WNW,292,6.9,6.9,27,0.00,CLR,,0.00,WeatherDisplay:10.37,2013-05-02 00:03:00,
2013-05-02 03:04:00,74.1,38.0,29.68,NW,315,5.8,5.8,27,0.00,CLR,,0.00,WeatherDisplay:10.37,2013-05-02 00:04:00,
2013-05-02 03:05:00,74.1,38.0,29.68,WNW,292,5.8,5.8,27,0.00,CLR,,0.00,WeatherDisplay:10.37,2013-05-02 00:05:00,
2013-05-02 03:08:00,74.1,38.0,29.68,North,0,4.6,4.6,27,0.00,CLR,,0.00,WeatherDisplay:10.37,2013-05-02 00:08:00,
2013-05-02 03:09:00,74.1,38.0,29.68,WNW,292,4.3,4.3,27,0.00,CLR,,0.00,WeatherDisplay:10.37,2013-05-02 00:09:00,
2013-05-02 03:10:00,74.1,38.0,29.68,WNW,292,4.3,4.3,27,0.00,CLR,,0.00,WeatherDisplay:10.37,2013-05-02 00:10:00,
2013-05-02 03:13:00,74.1,38.0,29.68,WNW,292,4.6,4.6,27,0.00,CLR,,0.00,WeatherDisplay:10.37,2013-05-02 00:13:00,
2013-05-02 03:14:00,74.1,38.0,29.68,NNW,338,4.6,4.6,27,0.00,CLR,,0.00,WeatherDisplay:10.37,2013-05-02 00:14:00,
2013-05-02 03:15:00,74.1,38.0,29.68,WNW,292,5.8,5.8,27,0.00,CLR,,0.00,WeatherDisplay:10.37,2013-05-02 00:15:00,
2013-05-02 03:18:00,74.1,38.0,29.68,WNW,292,5.4,5.4,27,0.00,CLR,,0.00,WeatherDisplay:10.37,2013-05-02 00:18:00,
2013-05-02 03:19:00,74.1,38.0,29.68,NNW,338,5.8,5.8,27,0.00,CLR,,0.00,WeatherDisplay:10.37,2013-05-02 00:19:00,
2013-05-02 03:20:00,74.1,38.0,29.68,NNW,338,5.8,5.8,27,0.00,CLR,,0.00,WeatherDisplay:10.37,2013-05-02 00:20:00,
2013-05-02 03:23:00,74.3,38.1,29.68,WNW,292,6.4,6.4,27,0.00,CLR,,0.00,WeatherDisplay:10.37,2013-05-02 00:23:00,
2013-05-02 03:24:00,74.3,38.1,29.68,NW,315,6.9,6.9,27,0.00,CLR,,0.00,WeatherDisplay:10.37,2013-05-02 00:24:00,
2013-05-02 03:25:00,74.3,38.1,29.68,WNW,292,6.9,6.9,27,0.00,CLR,,0.00,WeatherDisplay:10.37,2013-05-02 00:25:00,
2013-05-02 03:26:00,74.3,38.1,29.68,WSW,248,4.6,4.6,27,0.00,CLR,,0.00,WeatherDisplay:10.37,2013-05-02 00:26:00,
2013-05-02 03:28:00,74.5,38.3,29.68,West,270,5.8,5.8,27,0.00,CLR,,0.00,WeatherDisplay:10.37,2013-05-02 00:28:00,
2013-05-02 03:29:00,74.5,38.3,29.68,WNW,292,8.1,8.1,27,0.00,CLR,,0.00,WeatherDisplay:10.37,2013-05-02 00:29:00,
2013-05-02 03:30:00,74.5,38.3,29.68,WNW,292,8.1,8.1,27,0.00,CLR,,0.00,WeatherDisplay:10.37,2013-05-02 00:30:00,
2013-05-02 03:31:00,74.5,38.3,29.68,NNW,338,5.8,5.8,27,0.00,CLR,,0.00,WeatherDisplay:10.37,2013-05-02 00:31:00,
2013-05-02 03:33:00,74.5,38.3,29.68,NW,315,5.8,5.8,27,0.00,CLR,,0.00,WeatherDisplay:10.37,2013-05-02 00:33:00,
2013-05-02 03:34:00,74.5,38.3,29.68,NW,315,4.6,4.6,27,0.00,CLR,,0.00,WeatherDisplay:10.37,2013-05-02 00:34:00,
2013-05-02 03:35:00,74.5,38.3,29.68,NW,315,4.5,4.5,27,0.00,CLR,,0.00,WeatherDisplay:10.37,2013-05-02 00:35:00,
2013-05-02 03:36:00,74.5,38.3,29.68,NW,315,6.4,6.4,27,0.00,CLR,,0.00,WeatherDisplay:10.37,2013-05-02 00:36:00,
2013-05-02 03:39:00,74.7,38.4,29.65,WNW,292,4.6,4.6,27,0.00,CLR,,0.00,WeatherDisplay:10.37,2013-05-02 00:39:00,
2013-05-02 03:40:00,74.7,38.4,29.65,WNW,292,4.6,4.6,27,0.00,CLR,,0.00,WeatherDisplay:10.37,2013-05-02 00:40:00,
2013-05-02 03:41:00,74.7,38.4,29.65,NW,315,5.8,5.8,27,0.00,CLR,,0.00,WeatherDisplay:10.37,2013-05-02 00:41:00,
2013-05-02 03:44:00,74.7,38.4,29.65,WNW,292,5.8,5.8,27,0.00,CLR,,0.00,WeatherDisplay:10.37,2013-05-02 00:44:00,
2013-05-02 03:45:00,74.7,38.4,29.65,NNW,338,3.5,3.5,27,0.00,CLR,,0.00,WeatherDisplay:10.37,2013-05-02 00:45:00,
2013-05-02 03:46:00,74.7,38.4,29.65,WNW,292,5.8,5.8,27,0.00,CLR,,0.00,WeatherDisplay:10.37,2013-05-02 00:46:00,
2013-05-02 03:49:00,74.8,38.6,29.65,WNW,292,6.2,6.2,27,0.00,CLR,,0.00,WeatherDisplay:10.37,2013-05-02 00:49:00,
2013-05-02 03:50:00,74.8,38.6,29.65,NW,315,5.8,5.8,27,0.00,CLR,,0.00,WeatherDisplay:10.37,2013-05-02 00:50:00,
2013-05-02 03:51:00,74.8,38.6,29.65,WNW,292,7.8,7.8,27,0.00,CLR,,0.00,WeatherDisplay:10.37,2013-05-02 00:51:00,
2013-05-02 03:54:00,74.8,38.6,29.65,WNW,292,5.8,5.8,27,0.00,CLR,,0.00,WeatherDisplay:10.37,2013-05-02 00:54:00,
2013-05-02 03:55:00,74.8,38.6,29.65,WNW,292,6.0,6.0,27,0.00,CLR,,0.00,WeatherDisplay:10.37,2013-05-02 00:55:00,
2013-05-02 03:57:00,74.8,38.6,29.65,NNW,338,8.1,8.1,27,0.00,CLR,,0.00,WeatherDisplay:10.37,2013-05-02 00:57:00,
2013-05-02 03:59:00,74.8,38.6,29.65,West,270,8.1,8.1,27,0.00,CLR,,0.00,WeatherDisplay:10.37,2013-05-02 00:59:00,
2013-05-02 04:00:00,74.8,38.6,29.65,WNW,292,8.1,8.1,27,0.00,CLR,,0.00,WeatherDisplay:10.37,2013-05-02 01:00:00,
2013-05-02 04:01:00,74.8,38.6,29.65,NNW,338,8.1,8.1,27,0.00,CLR,,0.00,WeatherDisplay:10.37,2013-05-02 01:01:00,
2013-05-02 04:02:00,74.8,38.6,29.65,WNW,292,6.9,6.9,27,0.00,CLR,,0.00,WeatherDisplay:10.37,2013-05-02 01:02:00,
2013-05-02 04:04:00,74.8,38.6,29.65,NNW,338,10.4,10.4,27,0.00,CLR,,0.00,WeatherDisplay:10.37,2013-05-02 01:04:00,
2013-05-02 04:05:00,74.8,38.6,29.65,NNW,338,6.9,6.9,27,0.00,CLR,,0.00,WeatherDisplay:10.37,2013-05-02 01:05:00,
2013-05-02 04:06:00,74.8,38.6,29.65,NW,315,5.8,5.8,27,0.00,CLR,,0.00,WeatherDisplay:10.37,2013-05-02 01:06:00,
2013-05-02 04:07:00,74.8,38.6,29.65,West,270,6.2,6.2,27,0.00,CLR,,0.00,WeatherDisplay:10.37,2013-05-02 01:07:00,
2013-05-02 04:10:00,75.0,38.8,29.65,West,270,6.9,6.9,27,0.00,CLR,,0.00,WeatherDisplay:10.37,2013-05-02 01:10:00,
2013-05-02 04:11:00,75.0,38.8,29.65,West,270,10.4,10.4,27,0.00,CLR,,0.00,WeatherDisplay:10.37,2013-05-02 01:11:00,
2013-05-02 04:12:00,75.0,38.8,29.65,WNW,292,10.4,10.4,27,0.00,CLR,,0.00,WeatherDisplay:10.37,2013-05-02 01:12:00,
2013-05-02 04:15:00,75.0,38.8,29.65,West,270,9.2,9.2,27,0.00,CLR,,0.00,WeatherDisplay:10.37,2013-05-02 01:15:00,
2013-05-02 04:16:00,75.0,38.8,29.65,WNW,292,10.4,10.4,27,0.00,CLR,,0.00,WeatherDisplay:10.37,2013-05-02 01:16:00,
2013-05-02 04:17:00,75.0,38.8,29.65,WNW,292,10.4,10.4,27,0.00,CLR,,0.00,WeatherDisplay:10.37,2013-05-02 01:17:00,
2013-05-02 04:20:00,75.0,38.8,29.65,WSW,248,8.1,8.1,27,0.00,CLR,,0.00,WeatherDisplay:10.37,2013-05-02 01:20:00,
2013-05-02 04:21:00,75.0,38.8,29.65,WSW,248,8.1,8.1,27,0.00,CLR,,0.00,WeatherDisplay:10.37,2013-05-02 01:21:00,
2013-05-02 04:22:00,75.0,38.8,29.65,WNW,292,9.2,9.2,27,0.00,CLR,,0.00,WeatherDisplay:10.37,2013-05-02 01:22:00,
2013-05-02 04:23:00,74.8,38.6,29.65,WNW,292,5.8,5.8,27,0.00,CLR,,0.00,WeatherDisplay:10.37,2013-05-02 01:23:00,
2013-05-02 04:25:00,74.7,38.4,29.65,WNW,292,5.8,5.8,27,0.00,CLR,,0.00,WeatherDisplay:10.37,2013-05-02 01:25:00,
2013-05-02 04:26:00,74.7,38.4,29.65,West,270,6.9,6.9,27,0.00,CLR,,0.00,WeatherDisplay:10.37,2013-05-02 01:26:00,
2013-05-02 04:27:00,74.7,38.4,29.65,West,270,8.1,8.1,27,0.00,CLR,,0.00,WeatherDisplay:10.37,2013-05-02 01:27:00,
2013-05-02 04:28:00,74.5,38.3,29.65,WSW,248,5.8,5.8,27,0.00,CLR,,0.00,WeatherDisplay:10.37,2013-05-02 01:28:00,
2013-05-02 04:30:00,74.3,38.1,29.65,WSW,248,5.6,5.6,27,0.00,CLR,,0.00,WeatherDisplay:10.37,2013-05-02 01:30:00,
2013-05-02 04:31:00,74.3,38.1,29.65,WSW,248,6.2,6.2,27,0.00,CLR,,0.00,WeatherDisplay:10.37,2013-05-02 01:31:00,
2013-05-02 04:32:00,74.3,38.1,29.65,WSW,248,8.1,8.1,27,0.00,CLR,,0.00,WeatherDisplay:10.37,2013-05-02 01:32:00,
2013-05-02 04:33:00,74.3,38.1,29.65,WSW,248,8.7,8.7,27,0.00,CLR,,0.00,WeatherDisplay:10.37,2013-05-02 01:33:00,
2013-05-02 04:36:00,74.1,38.0,29.65,WNW,292,10.4,10.4,27,0.00,CLR,,0.00,WeatherDisplay:10.37,2013-05-02 01:36:00,
2013-05-02 04:37:00,74.1,38.0,29.68,West,270,10.4,10.4,27,0.00,CLR,,0.00,WeatherDisplay:10.37,2013-05-02 01:37:00,
2013-05-02 04:39:00,73.9,37.8,29.68,NNW,338,5.8,5.8,27,0.00,CLR,,0.00,WeatherDisplay:10.37,2013-05-02 01:39:00,
2013-05-02 04:41:00,73.8,37.7,29.68,West,270,6.2,6.2,27,0.00,CLR,,0.00,WeatherDisplay:10.37,2013-05-02 01:41:00,
2013-05-02 04:42:00,73.9,37.8,29.68,WNW,292,10.4,10.4,27,0.00,CLR,,0.00,WeatherDisplay:10.37,2013-05-02 01:42:00,
2013-05-02 04:44:00,73.9,37.8,29.68,West,270,5.8,5.8,27,0.00,CLR,,0.00,WeatherDisplay:10.37,2013-05-02 01:44:00,
2013-05-02 04:46:00,73.9,37.8,29.68,WNW,292,5.8,5.8,27,0.00,CLR,,0.00,WeatherDisplay:10.37,2013-05-02 01:46:00,
2013-05-02 04:47:00,73.9,37.8,29.68,NNW,338,3.5,3.5,27,0.00,CLR,,0.00,WeatherDisplay:10.37,2013-05-02 01:47:00,
2013-05-02 04:49:00,73.9,37.8,29.68,WSW,248,4.6,4.6,27,0.00,CLR,,0.00,WeatherDisplay:10.37,2013-05-02 01:49:00,
2013-05-02 04:51:00,73.9,37.8,29.68,WNW,292,5.9,5.9,27,0.00,CLR,,0.00,WeatherDisplay:10.37,2013-05-02 01:51:00,
2013-05-02 04:52:00,74.1,38.0,29.68,WNW,292,6.2,6.2,27,0.00,CLR,,0.00,WeatherDisplay:10.37,2013-05-02 01:52:00,
2013-05-02 04:54:00,74.3,38.1,29.65,West,270,8.1,8.1,27,0.00,CLR,,0.00,WeatherDisplay:10.37,2013-05-02 01:54:00,
2013-05-02 04:56:00,74.3,38.1,29.65,WSW,248,5.8,5.8,27,0.00,CLR,,0.00,WeatherDisplay:10.37,2013-05-02 01:56:00,
2013-05-02 04:57:00,74.3,38.1,29.65,WNW,292,5.8,5.8,27,0.00,CLR,,0.00,WeatherDisplay:10.37,2013-05-02 01:57:00,
2013-05-02 04:59:00,74.5,38.3,29.65,WNW,292,7.8,7.8,27,0.00,CLR,,0.00,WeatherDisplay:10.37,2013-05-02 01:59:00,
2013-05-02 05:01:00,74.5,38.3,29.65,WNW,292,9.2,9.2,27,0.00,CLR,,0.00,WeatherDisplay:10.37,2013-05-02 02:01:00,
2013-05-02 05:02:00,74.3,38.1,29.65,West,270,8.1,8.1,27,0.00,CLR,,0.00,WeatherDisplay:10.37,2013-05-02 02:02:00,
2013-05-02 05:03:00,74.3,38.1,29.65,West,270,8.1,8.1,27,0.00,CLR,,0.00,WeatherDisplay:10.37,2013-05-02 02:03:00,
2013-05-02 05:05:00,74.3,38.1,29.65,West,270,8.1,8.1,27,0.00,CLR,,0.00,WeatherDisplay:10.37,2013-05-02 02:05:00,
2013-05-02 05:06:00,74.1,38.0,29.65,West,270,5.8,5.8,27,0.00,CLR,,0.00,WeatherDisplay:10.37,2013-05-02 02:06:00,
2013-05-02 05:07:00,74.1,38.0,29.65,West,270,6.0,6.0,27,0.00,CLR,,0.00,WeatherDisplay:10.37,2013-05-02 02:07:00,
2013-05-02 05:08:00,74.1,38.0,29.65,West,270,6.0,6.0,27,0.00,CLR,,0.00,WeatherDisplay:10.37,2013-05-02 02:08:00,
2013-05-02 05:11:00,73.9,37.8,29.65,WSW,248,8.5,8.5,27,0.00,CLR,,0.00,WeatherDisplay:10.37,2013-05-02 02:11:00,
2013-05-02 05:12:00,73.9,37.8,29.65,West,270,9.2,9.2,27,0.00,CLR,,0.00,WeatherDisplay:10.37,2013-05-02 02:12:00,
2013-05-02 05:13:00,73.9,37.8,29.65,West,270,9.2,9.2,27,0.00,CLR,,0.00,WeatherDisplay:10.37,2013-05-02 02:13:00,
2013-05-02 05:16:00,73.9,37.8,29.65,NW,315,9.2,9.2,27,0.00,CLR,,0.00,WeatherDisplay:10.37,2013-05-02 02:16:00,
2013-05-02 05:18:00,73.9,37.8,29.65,WNW,292,9.7,9.7,27,0.00,CLR,,0.00,WeatherDisplay:10.37,2013-05-02 02:18:00,
2013-05-02 05:21:00,73.9,37.8,29.65,West,270,9.2,9.2,27,0.00,CLR,,0.00,WeatherDisplay:10.37,2013-05-02 02:21:00,
2013-05-02 05:22:00,73.9,37.8,29.68,WNW,292,5.8,5.8,27,0.00,CLR,,0.00,WeatherDisplay:10.37,2013-05-02 02:22:00,
2013-05-02 05:23:00,73.8,37.7,29.68,WNW,292,5.8,5.8,27,0.00,CLR,,0.00,WeatherDisplay:10.37,2013-05-02 02:23:00,
2013-05-02 05:27:00,73.8,37.7,29.68,WNW,292,8.1,8.1,27,0.00,CLR,,0.00,WeatherDisplay:10.37,2013-05-02 02:27:00,
2013-05-02 05:28:00,73.8,37.7,29.68,NNW,338,4.6,4.6,27,0.00,CLR,,0.00,WeatherDisplay:10.37,2013-05-02 02:28:00,
2013-05-02 05:32:00,73.6,37.5,29.68,WNW,292,10.7,10.7,27,0.00,CLR,,0.00,WeatherDisplay:10.37,2013-05-02 02:32:00,
2013-05-02 05:33:00,73.6,37.5,29.68,WNW,292,10.4,10.4,27,0.00,CLR,,0.00,WeatherDisplay:10.37,2013-05-02 02:33:00,
2013-05-02 05:37:00,73.8,37.7,29.68,West,270,15.0,15.0,27,0.00,CLR,,0.00,WeatherDisplay:10.37,2013-05-02 02:37:00,
2013-05-02 05:38:00,73.8,37.7,29.68,NW,315,9.7,9.7,27,0.00,CLR,,0.00,WeatherDisplay:10.37,2013-05-02 02:38:00,
2013-05-02 05:39:00,73.8,37.7,29.68,WNW,292,9.2,9.2,27,0.00,CLR,,0.00,WeatherDisplay:10.37,2013-05-02 02:39:00,
2013-05-02 05:42:00,73.8,37.7,29.68,WNW,292,8.1,8.1,27,0.00,CLR,,0.00,WeatherDisplay:10.37,2013-05-02 02:42:00,
2013-05-02 05:43:00,73.8,37.7,29.68,WNW,292,6.4,6.4,27,0.00,CLR,,0.00,WeatherDisplay:10.37,2013-05-02 02:43:00,
2013-05-02 05:44:00,73.8,37.7,29.68,WNW,292,8.1,8.1,27,0.00,CLR,,0.00,WeatherDisplay:10.37,2013-05-02 02:44:00,
2013-05-02 05:47:00,73.9,37.8,29.68,WNW,292,7.6,7.6,27,0.00,CLR,,0.00,WeatherDisplay:10.37,2013-05-02 02:47:00,
2013-05-02 05:48:00,73.9,37.8,29.68,NW,315,10.4,10.4,27,0.00,CLR,,0.00,WeatherDisplay:10.37,2013-05-02 02:48:00,
2013-05-02 05:49:00,73.9,37.8,29.68,NW,315,10.4,10.4,27,0.00,CLR,,0.00,WeatherDisplay:10.37,2013-05-02 02:49:00,
2013-05-02 05:53:00,73.9,37.8,29.65,WNW,292,10.0,10.0,27,0.00,CLR,,0.00,WeatherDisplay:10.37,2013-05-02 02:53:00,
2013-05-02 05:54:00,73.9,37.8,29.65,West,270,10.4,10.4,27,0.00,CLR,,0.00,WeatherDisplay:10.37,2013-05-02 02:54:00,
2013-05-02 05:58:00,74.1,38.0,29.65,WNW,292,11.5,11.5,27,0.00,CLR,,0.00,WeatherDisplay:10.37,2013-05-02 02:58:00,
2013-05-02 05:59:00,74.1,38.0,29.65,NNW,338,10.4,10.4,27,0.00,CLR,,0.00,WeatherDisplay:10.37,2013-05-02 02:59:00,
2013-05-02 06:00:00,74.1,38.0,29.65,West,270,10.4,10.4,27,0.00,CLR,,0.00,WeatherDisplay:10.37,2013-05-02 03:00:00,
2013-05-02 06:03:00,74.1,38.0,29.65,NNW,338,10.4,10.4,27,0.00,CLR,,0.00,WeatherDisplay:10.37,2013-05-02 03:03:00,
2013-05-02 06:04:00,74.1,38.0,29.65,NNW,338,10.4,10.4,27,0.00,CLR,,0.00,WeatherDisplay:10.37,2013-05-02 03:04:00,
2013-05-02 06:05:00,74.1,38.0,29.65,WNW,292,6.9,6.9,27,0.00,CLR,,0.00,WeatherDisplay:10.37,2013-05-02 03:05:00,
2013-05-02 06:09:00,74.3,38.1,29.68,WNW,292,8.1,8.1,27,0.00,CLR,,0.00,WeatherDisplay:10.37,2013-05-02 03:09:00,
2013-05-02 06:10:00,74.3,38.1,29.68,WNW,292,8.1,8.1,27,0.00,CLR,,0.00,WeatherDisplay:10.37,2013-05-02 03:10:00,
2013-05-02 06:14:00,74.3,38.1,29.68,WNW,292,10.5,10.5,27,0.00,CLR,,0.00,WeatherDisplay:10.37,2013-05-02 03:14:00,
2013-05-02 06:15:00,74.3,38.1,29.68,WNW,292,10.4,10.4,27,0.00,CLR,,0.00,WeatherDisplay:10.37,2013-05-02 03:15:00,
2013-05-02 06:19:00,74.5,38.3,29.68,WNW,292,8.1,8.1,27,0.00,CLR,,0.00,WeatherDisplay:10.37,2013-05-02 03:19:00,
2013-05-02 06:20:00,74.5,38.3,29.68,NNW,338,8.1,8.1,27,0.00,CLR,,0.00,WeatherDisplay:10.37,2013-05-02 03:20:00,
2013-05-02 06:24:00,74.5,38.3,29.68,WNW,292,6.9,6.9,27,0.00,CLR,,0.00,WeatherDisplay:10.37,2013-05-02 03:24:00,
2013-05-02 06:25:00,74.5,38.3,29.68,WSW,248,6.4,6.4,27,0.00,CLR,,0.00,WeatherDisplay:10.37,2013-05-02 03:25:00,
2013-05-02 06:29:00,74.3,38.1,29.68,WNW,292,6.9,6.9,27,0.00,CLR,,0.00,WeatherDisplay:10.37,2013-05-02 03:29:00,
2013-05-02 06:30:00,74.3,38.1,29.68,NW,315,6.2,6.2,27,0.00,CLR,,0.00,WeatherDisplay:10.37,2013-05-02 03:30:00,
2013-05-02 06:35:00,73.8,37.7,29.68,WSW,248,8.1,8.1,27,0.00,CLR,,0.00,WeatherDisplay:10.37,2013-05-02 03:35:00,
2013-05-02 06:36:00,73.8,37.7,29.68,WNW,292,5.8,5.8,27,0.00,CLR,,0.00,WeatherDisplay:10.37,2013-05-02 03:36:00,
2013-05-02 06:40:00,73.4,37.4,29.68,WNW,292,5.4,5.4,27,0.00,CLR,,0.00,WeatherDisplay:10.37,2013-05-02 03:40:00,
2013-05-02 06:41:00,73.2,37.2,29.68,WSW,248,6.4,6.4,27,0.00,CLR,,0.00,WeatherDisplay:10.37,2013-05-02 03:41:00,
2013-05-02 06:45:00,73.0,37.1,29.68,SW,225,6.9,6.9,27,0.00,CLR,,0.00,WeatherDisplay:10.37,2013-05-02 03:45:00,
2013-05-02 06:46:00,73.0,37.1,29.68,WSW,248,6.9,6.9,27,0.00,CLR,,0.00,WeatherDisplay:10.37,2013-05-02 03:46:00,
2013-05-02 06:50:00,73.0,37.1,29.68,SW,225,3.5,3.5,27,0.00,CLR,,0.00,WeatherDisplay:10.37,2013-05-02 03:50:00,
2013-05-02 06:51:00,73.0,37.1,29.68,SSW,202,4.6,4.6,27,0.00,CLR,,0.00,WeatherDisplay:10.37,2013-05-02 03:51:00,
2013-05-02 06:55:00,73.0,37.1,29.68,WSW,248,4.6,4.6,27,0.00,CLR,,0.00,WeatherDisplay:10.37,2013-05-02 03:55:00,
2013-05-02 06:56:00,73.0,37.1,29.68,SW,225,4.6,4.6,27,0.00,CLR,,0.00,WeatherDisplay:10.37,2013-05-02 03:56:00,
2013-05-02 07:00:00,72.9,36.9,29.68,WSW,248,4.6,4.6,27,0.00,CLR,,0.00,WeatherDisplay:10.37,2013-05-02 04:00:00,
2013-05-02 07:01:00,72.9,36.9,29.68,WSW,248,4.6,4.6,27,0.00,CLR,,0.00,WeatherDisplay:10.37,2013-05-02 04:01:00,
2013-05-02 07:06:00,72.7,36.8,29.68,SSW,202,3.5,3.5,27,0.00,CLR,,0.00,WeatherDisplay:10.37,2013-05-02 04:06:00,
2013-05-02 07:11:00,72.7,36.8,29.68,SW,225,0.0,0.0,27,0.00,CLR,,0.00,WeatherDisplay:10.37,2013-05-02 04:11:00,
2013-05-02 07:12:00,72.7,36.8,29.68,South,180,0.0,0.0,27,0.00,CLR,,0.00,WeatherDisplay:10.37,2013-05-02 04:12:00,
2013-05-02 07:16:00,73.8,37.7,29.68,SSW,202,5.8,5.8,27,0.00,CLR,,0.00,WeatherDisplay:10.37,2013-05-02 04:16:00,
2013-05-02 07:17:00,73.9,37.8,29.68,SSW,202,3.5,3.5,27,0.00,CLR,,0.00,WeatherDisplay:10.37,2013-05-02 04:17:00,
2013-05-02 07:21:00,74.8,38.6,29.68,WNW,292,4.6,4.6,27,0.00,CLR,,0.00,WeatherDisplay:10.37,2013-05-02 04:21:00,
2013-05-02 07:22:00,75.0,38.8,29.68,West,270,4.6,4.6,27,0.00,CLR,,0.00,WeatherDisplay:10.37,2013-05-02 04:22:00,
2013-05-02 07:26:00,76.1,38.7,29.68,WNW,292,3.5,3.5,26,0.00,CLR,,0.00,WeatherDisplay:10.37,2013-05-02 04:26:00,
2013-05-02 07:27:00,76.1,38.7,29.68,WSW,248,3.5,3.5,26,0.00,CLR,,0.00,WeatherDisplay:10.37,2013-05-02 04:27:00,
2013-05-02 07:28:00,76.3,38.9,29.68,WSW,248,4.9,4.9,26,0.00,CLR,,0.00,WeatherDisplay:10.37,2013-05-02 04:28:00,
2013-05-02 07:31:00,76.5,39.0,29.68,WSW,248,5.8,5.8,26,0.00,CLR,,0.00,WeatherDisplay:10.37,2013-05-02 04:31:00,
2013-05-02 07:32:00,76.6,39.2,29.68,West,270,5.8,5.8,26,0.00,CLR,,0.00,WeatherDisplay:10.37,2013-05-02 04:32:00,
2013-05-02 07:33:00,76.6,39.2,29.68,WSW,248,4.6,4.6,26,0.00,CLR,,0.00,WeatherDisplay:10.37,2013-05-02 04:33:00,
2013-05-02 07:37:00,76.8,39.3,29.68,WSW,248,5.8,5.8,26,0.00,CLR,,0.00,WeatherDisplay:10.37,2013-05-02 04:37:00,
2013-05-02 07:38:00,76.8,39.3,29.71,WSW,248,8.1,8.1,26,0.00,CLR,,0.00,WeatherDisplay:10.37,2013-05-02 04:38:00,
2013-05-02 07:42:00,77.0,39.5,29.71,WSW,248,5.8,5.8,26,0.00,CLR,,0.00,WeatherDisplay:10.37,2013-05-02 04:42:00,
2013-05-02 07:43:00,77.0,39.5,29.71,WSW,248,5.8,5.8,26,0.00,CLR,,0.00,WeatherDisplay:10.37,2013-05-02 04:43:00,
2013-05-02 07:44:00,77.0,39.5,29.71,WSW,248,5.8,5.8,26,0.00,CLR,,0.00,WeatherDisplay:10.37,2013-05-02 04:44:00,
2013-05-02 07:47:00,77.4,39.8,29.71,WSW,248,8.1,8.1,26,0.00,CLR,,0.00,WeatherDisplay:10.37,2013-05-02 04:47:00,
2013-05-02 07:48:00,77.4,39.8,29.71,WSW,248,5.9,6.0,26,0.00,CLR,,0.00,WeatherDisplay:10.37,2013-05-02 04:48:00,
2013-05-02 07:49:00,77.4,39.8,29.71,West,270,5.9,5.9,26,0.00,CLR,,0.00,WeatherDisplay:10.37,2013-05-02 04:49:00,
2013-05-02 07:52:00,77.2,39.6,29.71,WSW,248,10.4,10.4,26,0.00,CLR,,0.00,WeatherDisplay:10.37,2013-05-02 04:52:00,